EDT,Max TemperatureF,Mean TemperatureF,Min TemperatureF,Max Dew PointF,MeanDew PointF,Min DewpointF,Max Humidity, Mean Humidity, Min Humidity, Max Sea Level PressureIn, Mean Sea Level PressureIn, Min Sea Level PressureIn, Max VisibilityMiles, Mean VisibilityMiles, Min VisibilityMiles, Max Wind SpeedMPH, Mean Wind SpeedMPH, Max Gust SpeedMPH,PrecipitationIn, CloudCover, Events, WindDirDegrees
2013-7-1,72,66,61,61,56,51,79,72,68,30.03,29.98,29.91,10,10,7,21,10,31,0.01,6,Rain,31
2013-7-2,73,68,62,64,61,54,94,84,72,30.05,30.02,29.99,10,8,2,10,8,,0.09,7,Rain,45
2013-7-3,82,73,64,67,64,62,94,82,49,30.11,30.07,30.03,10,5,0,14,4,23,0.19,6,Fog-Rain,146
2013-7-4,80,72,64,68,64,63,94,82,58,30.16,30.12,30.08,10,6,0,6,1,,0.00,2,Fog,205
2013-7-5,82,76,69,68,66,63,93,79,54,30.13,30.10,30.06,10,7,1,7,1,,0.27,4,Rain,191
2013-7-6,79,73,68,72,69,64,94,86,74,30.13,30.08,30.00,10,7,1,8,3,,0.19,5,Rain,179
2013-7-7,80,73,66,69,65,60,94,83,61,30.09,30.05,30.01,10,8,1,13,6,24,0.23,7,Rain-Thunderstorm,207
2013-7-8,84,75,68,72,70,64,93,84,63,30.07,30.03,29.99,10,7,1,10,5,18,0.61,6,Rain-Thunderstorm,199
2013-7-9,88,80,73,75,73,69,94,84,62,30.02,29.97,29.91,10,8,3,7,3,16,0.07,4,Rain-Thunderstorm,225
2013-7-10,86,76,64,75,69,58,88,78,59,29.96,29.87,29.81,10,9,1,32,9,47,1.04,3,Rain-Thunderstorm,246
2013-7-11,80,72,63,60,57,55,84,65,43,30.07,30.03,29.96,10,10,10,12,6,16,0.00,3,,8
2013-7-12,80,70,60,61,58,54,93,68,43,30.16,30.12,30.06,10,10,6,10,5,,0.00,1,,43
2013-7-13,84,72,61,66,63,58,90,72,53,30.19,30.15,30.12,10,10,10,10,5,,0.00,2,,53
2013-7-14,88,76,64,71,68,63,93,74,55,30.24,30.21,30.18,10,9,5,9,4,,0.01,1,,69
2013-7-15,91,81,71,74,71,68,94,73,50,30.30,30.27,30.23,10,8,2,7,2,,0.00,1,Rain,199
2013-7-16,93,82,73,76,72,70,90,70,50,30.33,30.29,30.26,10,10,10,8,1,,0.00,0,,314
2013-7-17,91,82,72,74,72,69,93,73,48,30.32,30.26,30.18,10,10,7,7,1,,0.00,0,Rain,278
2013-7-18,93,83,73,75,72,70,94,71,49,30.20,30.11,30.00,10,8,2,7,2,,0.00,0,Rain-Thunderstorm,233
2013-7-19,93,83,75,73,71,70,85,65,48,30.00,29.89,29.80,10,9,7,15,8,24,0.00,1,Thunderstorm,223
2013-7-20,87,78,71,73,70,63,94,81,46,29.91,29.83,29.77,10,7,0,13,7,22,1.21,5,Fog-Rain-Thunderstorm,268
2013-7-21,86,75,66,67,65,63,87,71,51,29.99,29.95,29.91,10,10,6,7,4,,0.00,0,,57
2013-7-22,80,72,66,68,65,61,94,82,62,29.92,29.87,29.78,10,7,2,13,6,,0.49,5,Rain,66
2013-7-23,84,75,64,69,64,56,93,72,53,29.87,29.76,29.71,10,8,4,13,4,24,0.00,1,,263
2013-7-24,73,62,53,54,51,49,87,66,49,30.05,29.99,29.90,10,10,10,15,8,22,0.00,2,,27
2013-7-25,77,63,51,57,53,50,94,70,43,30.13,30.09,30.05,10,9,2,6,1,,0.01,1,,3
2013-7-26,78,66,55,61,57,53,90,68,50,30.11,30.03,29.92,10,10,10,9,2,,0.00,1,,195
2013-7-27,79,68,54,66,61,51,90,79,45,29.93,29.85,29.77,10,8,6,15,7,22,0.04,6,Rain-Thunderstorm,209
2013-7-28,69,58,51,51,49,47,93,71,52,30.03,29.94,29.89,10,10,10,12,4,22,0.01,3,Rain,231
2013-7-29,73,62,51,56,53,48,93,73,53,30.20,30.11,30.03,10,10,10,10,3,18,0.00,4,,237
2013-7-30,79,66,53,63,56,50,94,72,48,30.25,30.19,30.13,10,10,9,6,1,,0.01,2,,190
2013-7-31,77,72,66,67,65,61,93,82,62,30.12,29.99,29.93,10,6,1,9,4,,0.06,7,Rain,197